Dundee, Oregon
Current Conditions -  °F | °C
As of 11:53 AM on Sunday 23 Nov 2014 (Local Time) from KMMV Reporting Station
Light Rain Light Rain  
Wind Chill: 54°   Ceiling: 4700
Heat Index: 54°   Visibility: 10mi
Dew Point: 47°   Wind: 17mph
Humidity: 77%   Direction: 210°SSW
Pressure: 30.26"   Gusts: 28mph
Location:  45.28°N, 123.01°W
Report Text: KMMV 231953Z AUTO 21015G24KT 10SM -RA SCT037 BKN047 OVC055 12/08 A3026 RMK AO2 RAB49 SLP247 P0000 T01220083 $
Loading
Personal Weather Stations






























Interactive Weather Map New forecast layout! Learn more

10-Day Weather Forecast

Advertisements
Track Severe Weather on mobile